sensor_id;sensor_type;location;lat;lon;timestamp;pressure;altitude;pressure_sealevel;temperature;humidity
77631;BME280;66798;47.370;8.552;2023-08-08T05:12:00;97002.97;;;12.07;77.60
77631;BME280;66798;47.370;8.552;2023-08-08T05:14:25;97007.41;;;12.22;77.87
77631;BME280;66798;47.370;8.552;2023-08-08T05:16:53;96999.75;;;12.36;78.34
77631;BME280;66798;47.370;8.552;2023-08-08T05:19:19;97006.56;;;12.52;78.80
77631;BME280;66798;47.370;8.552;2023-08-08T05:21:44;97013.88;;;12.76;76.90
77631;BME280;66798;47.370;8.552;2023-08-08T05:24:10;97014.34;;;12.93;76.93
77631;BME280;66798;47.370;8.552;2023-08-08T05:26:35;97014.00;;;13.10;76.65
77631;BME280;66798;47.370;8.552;2023-08-08T05:29:01;97005.72;;;13.27;75.83
77631;BME280;66798;47.370;8.552;2023-08-08T05:31:26;97006.69;;;13.47;75.90
77631;BME280;66798;47.370;8.552;2023-08-08T05:33:51;97010.47;;;13.70;76.20
77631;BME280;66798;47.370;8.552;2023-08-08T05:36:18;97010.13;;;14.11;75.64
77631;BME280;66798;47.370;8.552;2023-08-08T05:38:43;97006.00;;;14.53;73.19
77631;BME280;66798;47.370;8.552;2023-08-08T05:41:08;97004.91;;;14.83;70.76
77631;BME280;66798;47.370;8.552;2023-08-08T05:43:34;97009.75;;;15.19;71.72
77631;BME280;66798;47.370;8.552;2023-08-08T05:45:59;97005.09;;;15.29;70.01
77631;BME280;66798;47.370;8.552;2023-08-08T05:48:25;97010.03;;;15.17;67.87
77631;BME280;66798;47.370;8.552;2023-08-08T05:50:50;97014.63;;;15.12;69.25
77631;BME280;66798;47.370;8.552;2023-08-08T05:53:16;97013.94;;;15.01;68.06
77631;BME280;66798;47.370;8.552;2023-08-08T05:55:41;97009.84;;;14.90;67.67
77631;BME280;66798;47.370;8.552;2023-08-08T05:58:08;97018.22;;;14.97;68.52
77631;BME280;66798;47.370;8.552;2023-08-08T06:00:33;97009.81;;;14.95;68.87
77631;BME280;66798;47.370;8.552;2023-08-08T06:03:00;97012.66;;;14.98;70.09
77631;BME280;66798;47.370;8.552;2023-08-08T06:05:25;97012.94;;;14.97;69.40
77631;BME280;66798;47.370;8.552;2023-08-08T06:07:51;97013.25;;;14.95;69.35
77631;BME280;66798;47.370;8.552;2023-08-08T06:10:16;97015.53;;;15.02;68.83
77631;BME280;66798;47.370;8.552;2023-08-08T06:12:42;97010.44;;;15.05;69.30
77631;BME280;66798;47.370;8.552;2023-08-08T06:15:08;97011.63;;;15.18;69.02
77631;BME280;66798;47.370;8.552;2023-08-08T06:17:33;96998.22;;;15.28;69.14
77631;BME280;66798;47.370;8.552;2023-08-08T06:19:59;96995.50;;;15.53;68.64
77631;BME280;66798;47.370;8.552;2023-08-08T06:22:24;97000.13;;;15.80;68.16
77631;BME280;66798;47.370;8.552;2023-08-08T06:24:50;96999.16;;;15.89;65.05
77631;BME280;66798;47.370;8.552;2023-08-08T06:27:16;96995.97;;;15.92;66.25
77631;BME280;66798;47.370;8.552;2023-08-08T06:29:41;96995.63;;;15.80;66.17
77631;BME280;66798;47.370;8.552;2023-08-08T06:32:07;96993.75;;;15.81;66.76
77631;BME280;66798;47.370;8.552;2023-08-08T06:34:33;97001.72;;;15.81;66.08
77631;BME280;66798;47.370;8.552;2023-08-08T06:37:00;96991.38;;;15.79;66.95
77631;BME280;66798;47.370;8.552;2023-08-08T06:39:25;96992.75;;;15.77;65.93
77631;BME280;66798;47.370;8.552;2023-08-08T06:41:51;96992.84;;;15.71;66.38
77631;BME280;66798;47.370;8.552;2023-08-08T06:44:16;96982.19;;;15.90;66.80
77631;BME280;66798;47.370;8.552;2023-08-08T06:46:42;96982.50;;;16.03;66.64
77631;BME280;66798;47.370;8.552;2023-08-08T06:49:07;96991.47;;;16.07;66.20
77631;BME280;66798;47.370;8.552;2023-08-08T06:51:34;96992.38;;;16.16;66.23
77631;BME280;66798;47.370;8.552;2023-08-08T06:53:59;96992.00;;;16.37;66.01
77631;BME280;66798;47.370;8.552;2023-08-08T06:56:25;96992.88;;;16.46;66.00
77631;BME280;66798;47.370;8.552;2023-08-08T06:58:52;96996.34;;;16.60;66.86
77631;BME280;66798;47.370;8.552;2023-08-08T07:01:17;96993.78;;;16.69;64.82
77631;BME280;66798;47.370;8.552;2023-08-08T07:03:43;96991.63;;;16.71;64.16
77631;BME280;66798;47.370;8.552;2023-08-08T07:06:09;96993.84;;;16.77;64.61
77631;BME280;66798;47.370;8.552;2023-08-08T07:08:35;96988.84;;;16.90;64.71
77631;BME280;66798;47.370;8.552;2023-08-08T07:11:00;96984.91;;;17.01;64.11
77631;BME280;66798;47.370;8.552;2023-08-08T07:13:26;96979.47;;;17.06;64.05
77631;BME280;66798;47.370;8.552;2023-08-08T07:15:51;96969.44;;;17.17;63.16
77631;BME280;66798;47.370;8.552;2023-08-08T07:18:20;96968.28;;;17.32;63.24
77631;BME280;66798;47.370;8.552;2023-08-08T07:20:45;96973.38;;;17.42;62.37
77631;BME280;66798;47.370;8.552;2023-08-08T07:23:10;96967.63;;;17.49;62.07
77631;BME280;66798;47.370;8.552;2023-08-08T07:25:36;96965.53;;;17.59;60.97
77631;BME280;66798;47.370;8.552;2023-08-08T07:28:01;96974.25;;;17.74;60.42
77631;BME280;66798;47.370;8.552;2023-08-08T07:30:27;96970.31;;;17.71;60.14
77631;BME280;66798;47.370;8.552;2023-08-08T07:32:53;96973.63;;;17.99;60.13
77631;BME280;66798;47.370;8.552;2023-08-08T07:35:18;96976.34;;;18.08;60.10
77631;BME280;66798;47.370;8.552;2023-08-08T07:37:43;96975.28;;;18.18;58.78
77631;BME280;66798;47.370;8.552;2023-08-08T07:40:16;96972.72;;;18.44;59.99
77631;BME280;66798;47.370;8.552;2023-08-08T07:42:44;96970.72;;;18.50;58.04
77631;BME280;66798;47.370;8.552;2023-08-08T07:45:09;96976.72;;;18.64;58.50
77631;BME280;66798;47.370;8.552;2023-08-08T07:47:34;96969.75;;;18.85;59.21
77631;BME280;66798;47.370;8.552;2023-08-08T07:50:00;96964.56;;;18.80;58.43
77631;BME280;66798;47.370;8.552;2023-08-08T07:52:25;96965.53;;;18.93;58.49
77631;BME280;66798;47.370;8.552;2023-08-08T07:54:51;96966.66;;;19.09;58.19
77631;BME280;66798;47.370;8.552;2023-08-08T07:57:16;96964.59;;;19.15;56.89
77631;BME280;66798;47.370;8.552;2023-08-08T07:59:42;96966.34;;;19.02;56.32
77631;BME280;66798;47.370;8.552;2023-08-08T08:02:07;96958.16;;;19.16;57.04
77631;BME280;66798;47.370;8.552;2023-08-08T08:04:33;96958.50;;;19.32;57.38
77631;BME280;66798;47.370;8.552;2023-08-08T08:06:59;96951.75;;;19.43;56.41
77631;BME280;66798;47.370;8.552;2023-08-08T08:09:25;96947.03;;;19.49;56.46
77631;BME280;66798;47.370;8.552;2023-08-08T08:11:50;96943.41;;;19.53;55.60
77631;BME280;66798;47.370;8.552;2023-08-08T08:14:16;96934.78;;;19.39;56.17
77631;BME280;66798;47.370;8.552;2023-08-08T08:16:41;96937.78;;;19.46;54.71
77631;BME280;66798;47.370;8.552;2023-08-08T08:19:07;96929.75;;;19.38;54.91
77631;BME280;66798;47.370;8.552;2023-08-08T08:21:32;96924.44;;;19.55;56.03
77631;BME280;66798;47.370;8.552;2023-08-08T08:23:58;96927.88;;;19.73;55.92
77631;BME280;66798;47.370;8.552;2023-08-08T08:26:23;96935.03;;;19.90;54.01
77631;BME280;66798;47.370;8.552;2023-08-08T08:28:48;96931.50;;;20.24;54.50
77631;BME280;66798;47.370;8.552;2023-08-08T08:31:14;96935.81;;;20.37;54.33
77631;BME280;66798;47.370;8.552;2023-08-08T08:33:39;96933.00;;;20.43;54.22
77631;BME280;66798;47.370;8.552;2023-08-08T08:36:05;96933.56;;;20.48;55.70
77631;BME280;66798;47.370;8.552;2023-08-08T08:38:30;96925.44;;;20.74;54.10
77631;BME280;66798;47.370;8.552;2023-08-08T08:40:57;96924.06;;;20.89;51.50
77631;BME280;66798;47.370;8.552;2023-08-08T08:43:22;96923.56;;;20.96;52.59
77631;BME280;66798;47.370;8.552;2023-08-08T08:45:52;96920.47;;;20.85;51.00
77631;BME280;66798;47.370;8.552;2023-08-08T08:48:18;96922.69;;;20.62;51.91
77631;BME280;66798;47.370;8.552;2023-08-08T08:50:47;96927.41;;;21.07;52.83
77631;BME280;66798;47.370;8.552;2023-08-08T08:53:14;96926.13;;;21.68;53.43
77631;BME280;66798;47.370;8.552;2023-08-08T08:55:41;96924.31;;;21.59;50.02
77631;BME280;66798;47.370;8.552;2023-08-08T08:58:06;96938.94;;;21.62;51.22
77631;BME280;66798;47.370;8.552;2023-08-08T09:00:33;96935.16;;;21.63;52.65
77631;BME280;66798;47.370;8.552;2023-08-08T09:02:59;96934.97;;;21.80;53.32
77631;BME280;66798;47.370;8.552;2023-08-08T09:05:25;96937.94;;;22.12;50.58
77631;BME280;66798;47.370;8.552;2023-08-08T09:07:51;96931.28;;;22.55;50.22
77631;BME280;66798;47.370;8.552;2023-08-08T09:10:18;96935.75;;;22.63;50.88
77631;BME280;66798;47.370;8.552;2023-08-08T09:12:44;96939.09;;;22.73;47.78
77631;BME280;66798;47.370;8.552;2023-08-08T09:15:11;96942.84;;;23.08;48.98
77631;BME280;66798;47.370;8.552;2023-08-08T09:17:41;96932.41;;;23.31;48.42
77631;BME280;66798;47.370;8.552;2023-08-08T09:20:07;96925.16;;;23.48;46.84
77631;BME280;66798;47.370;8.552;2023-08-08T09:22:33;96926.06;;;23.68;46.87
77631;BME280;66798;47.370;8.552;2023-08-08T09:24:59;96917.63;;;23.82;47.42
77631;BME280;66798;47.370;8.552;2023-08-08T09:27:24;96926.84;;;24.12;47.58
77631;BME280;66798;47.370;8.552;2023-08-08T09:29:49;96918.75;;;24.28;47.32
77631;BME280;66798;47.370;8.552;2023-08-08T09:32:15;96916.53;;;23.99;43.51
77631;BME280;66798;47.370;8.552;2023-08-08T09:34:43;96915.47;;;23.87;44.83
77631;BME280;66798;47.370;8.552;2023-08-08T09:37:09;96913.66;;;24.07;44.94
77631;BME280;66798;47.370;8.552;2023-08-08T09:39:36;96908.97;;;24.04;44.78
77631;BME280;66798;47.370;8.552;2023-08-08T09:42:02;96911.22;;;24.18;45.57
77631;BME280;66798;47.370;8.552;2023-08-08T09:44:30;96902.03;;;24.35;43.94
77631;BME280;66798;47.370;8.552;2023-08-08T09:46:56;96902.63;;;24.44;44.95
77631;BME280;66798;47.370;8.552;2023-08-08T09:49:22;96895.19;;;24.53;43.95
77631;BME280;66798;47.370;8.552;2023-08-08T09:51:49;96905.25;;;24.09;42.96
77631;BME280;66798;47.370;8.552;2023-08-08T09:54:15;96896.03;;;24.26;41.91
77631;BME280;66798;47.370;8.552;2023-08-08T09:56:42;96886.78;;;23.91;40.78
77631;BME280;66798;47.370;8.552;2023-08-08T09:59:09;96892.91;;;24.40;41.85
77631;BME280;66798;47.370;8.552;2023-08-08T10:01:35;96890.91;;;24.52;43.85
77631;BME280;66798;47.370;8.552;2023-08-08T10:04:03;96886.09;;;24.77;40.33
77631;BME280;66798;47.370;8.552;2023-08-08T10:06:28;96887.09;;;24.89;43.04
77631;BME280;66798;47.370;8.552;2023-08-08T10:08:55;96896.16;;;25.00;42.88
77631;BME280;66798;47.370;8.552;2023-08-08T10:11:23;96894.31;;;25.04;41.55
77631;BME280;66798;47.370;8.552;2023-08-08T10:13:50;96887.81;;;25.05;41.60
77631;BME280;66798;47.370;8.552;2023-08-08T10:16:17;96887.59;;;24.94;38.63
77631;BME280;66798;47.370;8.552;2023-08-08T10:18:45;96881.19;;;24.83;40.12
77631;BME280;66798;47.370;8.552;2023-08-08T10:21:12;96889.56;;;24.78;42.40
77631;BME280;66798;47.370;8.552;2023-08-08T10:23:39;96890.13;;;24.52;39.02
77631;BME280;66798;47.370;8.552;2023-08-08T10:26:18;96885.97;;;24.54;41.65
77631;BME280;66798;47.370;8.552;2023-08-08T10:28:57;96883.81;;;24.60;41.53
77631;BME280;66798;47.370;8.552;2023-08-08T10:31:23;96878.38;;;24.76;41.37
77631;BME280;66798;47.370;8.552;2023-08-08T10:33:48;96885.50;;;24.68;40.92
